createdAt,value
2022-07-29T00:00:31.912Z,18.2
2022-07-29T00:02:32.284Z,18.2
2022-07-29T00:04:34.958Z,18.2
2022-07-29T00:06:32.766Z,18.2
2022-07-29T00:08:33.154Z,18.2
2022-07-29T00:10:33.838Z,18.1
2022-07-29T00:12:33.910Z,18.2
2022-07-29T00:14:34.234Z,18
2022-07-29T00:16:34.923Z,18.2
2022-07-29T00:18:34.914Z,18
2022-07-29T00:20:35.220Z,18
2022-07-29T00:22:37.810Z,18
2022-07-29T00:24:35.927Z,18.2
2022-07-29T00:26:36.307Z,18.1
2022-07-29T00:28:36.644Z,18
2022-07-29T00:30:37.102Z,17.8
2022-07-29T00:32:37.416Z,17.9
2022-07-29T00:34:37.709Z,17.7
2022-07-29T00:36:38.003Z,17.9
2022-07-29T00:38:38.399Z,17.9
2022-07-29T00:40:38.888Z,17.9
2022-07-29T00:42:44.052Z,17.8
2022-07-29T00:44:40.049Z,17.8
2022-07-29T00:46:39.866Z,17.8
2022-07-29T00:48:40.443Z,17.7
2022-07-29T00:50:40.430Z,17.7
2022-07-29T00:52:42.650Z,17.7
2022-07-29T00:54:44.102Z,17.6
2022-07-29T00:56:41.531Z,17.5
2022-07-29T00:58:42.324Z,17.3
2022-07-29T01:00:42.412Z,17.3
2022-07-29T01:02:42.452Z,17.3
2022-07-29T01:04:42.875Z,17.3
2022-07-29T01:06:43.265Z,17.3
2022-07-29T01:08:44.598Z,17.2
2022-07-29T01:10:45.688Z,17.3
2022-07-29T01:12:46.634Z,17.2
2022-07-29T01:14:45.920Z,17.2
2022-07-29T01:16:51.478Z,17.2
2022-07-29T01:18:48.583Z,17.3
2022-07-29T01:21:08.121Z,17.3
2022-07-29T01:23:08.699Z,17.3
2022-07-29T01:25:02.531Z,17.1
2022-07-29T01:26:49.251Z,17.1
2022-07-29T01:28:58.874Z,17.1
2022-07-29T01:30:51.578Z,16.9
2022-07-29T01:32:54.671Z,16.9
2022-07-29T01:34:52.480Z,17.1
2022-07-29T01:36:55.776Z,17.1
2022-07-29T01:38:54.498Z,17.1
2022-07-29T01:40:54.152Z,17.1
2022-07-29T01:42:53.663Z,17.1
2022-07-29T01:44:56.411Z,17.1
2022-07-29T01:46:56.251Z,17.1
2022-07-29T01:48:55.436Z,17
2022-07-29T01:50:56.277Z,17
2022-07-29T01:52:58.899Z,17
2022-07-29T01:54:56.002Z,17
2022-07-29T01:56:53.927Z,16.9
2022-07-29T01:58:53.713Z,17
2022-07-29T02:00:52.802Z,17.1
2022-07-29T02:02:54.906Z,17.1
2022-07-29T02:04:54.799Z,17.1
2022-07-29T02:06:57.272Z,17.1
2022-07-29T02:08:55.314Z,17
2022-07-29T02:10:55.721Z,17
2022-07-29T02:12:56.847Z,17
2022-07-29T02:14:58.971Z,17
2022-07-29T02:16:58.513Z,17
2022-07-29T02:18:57.804Z,17.1
2022-07-29T02:20:56.800Z,17.1
2022-07-29T02:22:57.436Z,17.1
2022-07-29T02:24:57.351Z,17
2022-07-29T02:26:59.301Z,17
2022-07-29T02:28:59.322Z,16.9
2022-07-29T02:30:59.660Z,16.9
2022-07-29T02:32:58.176Z,16.9
2022-07-29T02:34:59.724Z,16.9
2022-07-29T02:36:59.212Z,16.9
2022-07-29T02:38:59.452Z,17
2022-07-29T02:41:01.409Z,17
2022-07-29T02:42:59.621Z,17
2022-07-29T02:44:59.194Z,17
2022-07-29T02:47:07.630Z,17
2022-07-29T02:49:06.827Z,17
2022-07-29T02:51:07.241Z,17
2022-07-29T02:53:06.190Z,17
2022-07-29T02:55:06.790Z,17
2022-07-29T02:57:08.788Z,16.9
2022-07-29T02:59:06.335Z,16.9
2022-07-29T03:01:04.692Z,16.9
2022-07-29T03:03:07.723Z,16.9
2022-07-29T03:05:03.458Z,16.9
2022-07-29T03:07:05.376Z,16.9
2022-07-29T03:09:06.588Z,16.9
2022-07-29T03:11:04.714Z,16.9
2022-07-29T03:13:05.855Z,16.9
2022-07-29T03:15:05.953Z,16.9
2022-07-29T03:17:05.409Z,17
2022-07-29T03:19:05.542Z,17
2022-07-29T03:21:05.458Z,17
2022-07-29T03:23:05.627Z,16.8
2022-07-29T03:25:08.985Z,16.8
2022-07-29T03:27:06.149Z,16.9
2022-07-29T03:29:06.491Z,17
2022-07-29T03:31:07.030Z,17
2022-07-29T03:33:13.268Z,17
2022-07-29T03:35:23.689Z,17
2022-07-29T03:37:07.837Z,17
2022-07-29T03:39:09.427Z,17
2022-07-29T03:41:12.231Z,17.1
2022-07-29T03:43:11.341Z,17.1
2022-07-29T03:45:13.583Z,17.1
2022-07-29T03:47:11.160Z,17.1
2022-07-29T03:49:11.421Z,17.1
2022-07-29T03:51:10.749Z,17.1
2022-07-29T03:53:10.982Z,17.1
2022-07-29T03:55:10.937Z,17.1
2022-07-29T03:57:12.478Z,17.2
2022-07-29T03:59:12.981Z,17.2
2022-07-29T04:01:13.092Z,17.2
2022-07-29T04:03:13.324Z,17.4
2022-07-29T04:05:13.523Z,17.6
2022-07-29T04:07:13.433Z,17.6
2022-07-29T04:09:13.648Z,17.6
2022-07-29T04:11:13.737Z,17.6
2022-07-29T04:13:13.885Z,17.6
2022-07-29T04:15:14.198Z,17.6
2022-07-29T04:17:14.595Z,17.7
2022-07-29T04:19:14.941Z,17.7
2022-07-29T04:21:15.236Z,17.7
2022-07-29T04:23:15.706Z,17.8
2022-07-29T04:25:15.893Z,18
2022-07-29T04:27:16.454Z,18.2
2022-07-29T04:29:16.698Z,18.2
2022-07-29T04:31:18.594Z,18.1
2022-07-29T04:33:17.519Z,18.1
2022-07-29T04:35:17.941Z,18.1
2022-07-29T04:37:18.237Z,18
2022-07-29T04:39:22.675Z,18.3
2022-07-29T04:41:18.973Z,18.2
2022-07-29T04:43:22.397Z,18.6
2022-07-29T04:45:22.646Z,18.9
2022-07-29T04:47:20.356Z,19.2
2022-07-29T04:49:20.809Z,19
2022-07-29T04:51:21.242Z,18.8
2022-07-29T04:53:21.808Z,18.9
2022-07-29T04:55:22.852Z,19.1
2022-07-29T04:57:23.091Z,19.1
2022-07-29T04:59:23.490Z,19
2022-07-29T05:01:23.973Z,19
2022-07-29T05:03:24.372Z,19
2022-07-29T05:05:24.925Z,19
2022-07-29T05:07:25.471Z,19.2
2022-07-29T05:09:25.957Z,19.1
2022-07-29T05:11:30.218Z,19
2022-07-29T05:13:26.947Z,19
2022-07-29T05:15:27.552Z,19
2022-07-29T05:17:28.136Z,19.3
2022-07-29T05:19:28.470Z,19.3
2022-07-29T05:21:29.078Z,18.9
2022-07-29T05:23:29.538Z,18.7
2022-07-29T05:25:43.090Z,19
2022-07-29T05:27:30.562Z,19.3
2022-07-29T05:29:43.770Z,19.6
2022-07-29T05:31:31.941Z,19.5
2022-07-29T05:33:36.612Z,19.5
2022-07-29T05:35:32.717Z,19.8
2022-07-29T05:37:33.886Z,20.1
2022-07-29T05:39:48.728Z,20.3
2022-07-29T05:41:34.448Z,20.4
2022-07-29T05:43:35.014Z,19.8
2022-07-29T05:45:35.672Z,19.2
2022-07-29T05:47:36.242Z,18.9
2022-07-29T05:49:36.967Z,18.8
2022-07-29T05:51:37.455Z,18.7
2022-07-29T05:53:38.041Z,18.9
2022-07-29T05:55:38.814Z,19.3
2022-07-29T05:57:39.469Z,19.6
2022-07-29T05:59:39.811Z,19.9
2022-07-29T06:01:40.394Z,20
2022-07-29T06:03:40.832Z,20.1
2022-07-29T06:05:41.472Z,19.8
2022-07-29T06:07:42.137Z,19.3
2022-07-29T06:09:42.896Z,19.3
2022-07-29T06:11:43.299Z,19.5
2022-07-29T06:13:43.886Z,19.4
2022-07-29T06:15:45.072Z,19.5
2022-07-29T06:17:59.953Z,19.5
2022-07-29T06:19:45.781Z,19.5
2022-07-29T06:21:47.611Z,19.7
2022-07-29T06:23:46.929Z,19.8
2022-07-29T06:25:47.651Z,19.8
2022-07-29T06:27:48.180Z,20.1
2022-07-29T06:29:48.867Z,20.1
2022-07-29T06:31:49.444Z,20.7
2022-07-29T06:33:50.029Z,20.5
2022-07-29T06:35:53.374Z,20.3
2022-07-29T06:37:51.351Z,20.3
2022-07-29T06:39:54.588Z,20.3
2022-07-29T06:41:58.593Z,20.4
2022-07-29T06:43:54.538Z,20.5
2022-07-29T06:45:54.041Z,20.7
2022-07-29T06:47:54.598Z,20.5
2022-07-29T06:49:55.249Z,20.5
2022-07-29T06:51:56.162Z,20.4
2022-07-29T06:53:58.431Z,20.7
2022-07-29T06:55:57.296Z,20.7
2022-07-29T06:57:58.147Z,20.7
2022-07-29T06:59:58.691Z,20.7
2022-07-29T07:01:59.332Z,20.8
2022-07-29T07:03:59.968Z,21
2022-07-29T07:06:01.025Z,21.2
2022-07-29T07:08:01.177Z,21.1
2022-07-29T07:10:01.841Z,21
2022-07-29T07:12:02.819Z,20.8
2022-07-29T07:14:04.241Z,20.8
2022-07-29T07:16:05.072Z,21.1
2022-07-29T07:18:05.388Z,21.1
2022-07-29T07:20:06.630Z,21.1
2022-07-29T07:22:05.817Z,21.2
2022-07-29T07:24:07.016Z,21.2
2022-07-29T07:26:07.103Z,20.9
2022-07-29T07:28:07.798Z,20.9
2022-07-29T07:30:08.759Z,21
2022-07-29T07:32:09.093Z,21.1
2022-07-29T07:34:09.749Z,21.2
2022-07-29T07:36:10.323Z,21.5
2022-07-29T07:38:10.993Z,21.6
2022-07-29T07:40:12.371Z,21.5
2022-07-29T07:42:13.379Z,21.5
2022-07-29T07:44:16.022Z,21.8
2022-07-29T07:46:13.845Z,21.9
2022-07-29T07:48:13.984Z,21.8
2022-07-29T07:50:18.724Z,21.9
2022-07-29T07:52:16.286Z,21.9
2022-07-29T07:54:16.250Z,21.9
2022-07-29T07:56:16.332Z,21.9
2022-07-29T07:58:17.062Z,21.9
2022-07-29T08:00:17.837Z,22.3
2022-07-29T08:02:18.066Z,22.4
2022-07-29T08:04:23.494Z,22.5
2022-07-29T08:06:19.057Z,22.7
2022-07-29T08:08:19.782Z,22.7
2022-07-29T08:10:20.731Z,22.5
2022-07-29T08:12:20.768Z,22.8
2022-07-29T08:14:21.433Z,22.3
2022-07-29T08:16:22.103Z,21.7
2022-07-29T08:18:22.483Z,21.7
2022-07-29T08:20:23.006Z,22.5
2022-07-29T08:22:23.528Z,22.8
2022-07-29T08:24:24.098Z,23
2022-07-29T08:26:24.755Z,23.1
2022-07-29T08:28:25.954Z,23
2022-07-29T08:30:25.753Z,23.1
2022-07-29T08:32:43.785Z,23.1
2022-07-29T08:34:28.115Z,23.2
2022-07-29T08:36:27.381Z,23.7
2022-07-29T08:38:27.995Z,23.8
2022-07-29T08:40:30.528Z,23.7
2022-07-29T08:42:29.048Z,23.4
2022-07-29T08:44:31.123Z,23.7
2022-07-29T08:46:30.297Z,23.6
2022-07-29T08:48:32.635Z,23.6
2022-07-29T08:50:31.473Z,23.5
2022-07-29T08:52:35.657Z,23.4
2022-07-29T08:54:32.671Z,23.6
2022-07-29T08:56:34.342Z,23.8
2022-07-29T08:58:36.967Z,23.6
2022-07-29T09:00:35.305Z,23.6
2022-07-29T09:02:40.907Z,23.2
2022-07-29T09:04:36.915Z,23.4
2022-07-29T09:06:39.912Z,23.6
2022-07-29T09:08:36.363Z,24
2022-07-29T09:10:37.081Z,24
2022-07-29T09:12:38.181Z,23.9
2022-07-29T09:14:38.361Z,23.9
2022-07-29T09:16:54.612Z,23.8
2022-07-29T09:18:40.594Z,23.2
2022-07-29T09:20:39.688Z,23.2
2022-07-29T09:22:42.166Z,23.8
2022-07-29T09:24:42.916Z,24.8
2022-07-29T09:26:43.108Z,24.8
2022-07-29T09:28:42.615Z,24.9
2022-07-29T09:30:51.301Z,24.9
2022-07-29T09:32:58.305Z,25.5
2022-07-29T09:34:43.429Z,25.7
2022-07-29T09:36:46.309Z,25
2022-07-29T09:38:57.886Z,24.4
2022-07-29T09:40:56.496Z,24.5
2022-07-29T09:42:46.691Z,25
2022-07-29T09:44:47.964Z,25
2022-07-29T09:47:02.544Z,24.9
2022-07-29T09:49:07.338Z,24.4
2022-07-29T09:50:48.344Z,24.1
2022-07-29T09:52:50.398Z,23.7
2022-07-29T09:54:48.984Z,23.7
2022-07-29T09:56:49.911Z,24
2022-07-29T09:59:05.760Z,24.1
2022-07-29T10:00:52.362Z,24.1
2022-07-29T10:02:51.415Z,24.1
2022-07-29T10:04:52.407Z,24.3
2022-07-29T10:07:04.827Z,24.4
2022-07-29T10:08:52.722Z,24.2
2022-07-29T10:11:09.987Z,24
2022-07-29T10:12:56.435Z,24
2022-07-29T10:14:55.109Z,24
2022-07-29T10:16:55.670Z,23.9
2022-07-29T10:18:55.514Z,23.6
2022-07-29T10:20:57.121Z,23.8
2022-07-29T10:22:58.092Z,23.3
2022-07-29T10:24:56.997Z,23.1
2022-07-29T10:27:00.271Z,23.3
2022-07-29T10:28:58.003Z,23.5
2022-07-29T10:31:04.310Z,23.8
2022-07-29T10:33:18.226Z,23.8
2022-07-29T10:35:19.188Z,23.6
2022-07-29T10:37:12.518Z,23.5
2022-07-29T10:39:12.936Z,23.5
2022-07-29T10:41:13.229Z,23.5
2022-07-29T10:43:15.890Z,23.5
2022-07-29T10:45:04.923Z,23.7
2022-07-29T10:47:02.819Z,23.5
2022-07-29T10:49:15.649Z,23.8
2022-07-29T10:51:04.983Z,24.1
2022-07-29T10:53:04.932Z,24.5
2022-07-29T10:55:05.926Z,24.5
2022-07-29T10:57:15.616Z,24.3
2022-07-29T10:59:23.517Z,24
2022-07-29T11:01:37.169Z,23.7
2022-07-29T11:03:10.457Z,23.5
2022-07-29T11:05:08.855Z,23.3
2022-07-29T11:07:08.083Z,23.4
2022-07-29T11:09:17.366Z,23.4
2022-07-29T11:11:31.231Z,23.5
2022-07-29T11:13:09.620Z,23.7
2022-07-29T11:15:11.001Z,23.7
2022-07-29T11:17:10.504Z,23.8
2022-07-29T11:19:29.764Z,23.8
2022-07-29T11:21:35.924Z,23.8
2022-07-29T11:23:21.826Z,23.8
2022-07-29T11:25:14.357Z,23.6
2022-07-29T11:27:18.160Z,23.6
2022-07-29T11:29:20.203Z,23.8
2022-07-29T11:31:16.217Z,23.7
2022-07-29T11:33:54.501Z,23.8
2022-07-29T11:35:19.004Z,23.8
2022-07-29T11:37:28.314Z,23.7
2022-07-29T11:39:36.848Z,23.9
2022-07-29T11:41:25.514Z,23.9
2022-07-29T11:43:47.615Z,23.9
2022-07-29T11:45:44.230Z,23.9
2022-07-29T11:47:20.433Z,24
2022-07-29T11:49:22.012Z,24
2022-07-29T11:51:19.345Z,24
2022-07-29T11:53:20.874Z,23.8
2022-07-29T11:55:22.156Z,23.7
2022-07-29T11:57:21.104Z,23.7
2022-07-29T11:59:22.091Z,23.6
2022-07-29T12:01:22.014Z,23.4
2022-07-29T12:03:33.461Z,23.4
2022-07-29T12:07:34.862Z,23.6
2022-07-29T12:09:24.150Z,23.7
2022-07-29T12:11:25.054Z,23.7
2022-07-29T12:13:38.370Z,23.7
2022-07-29T12:15:39.173Z,23.7
2022-07-29T12:17:27.028Z,23.6
2022-07-29T12:19:27.039Z,23.6
2022-07-29T12:21:28.824Z,23.6
2022-07-29T12:23:29.496Z,23.6
2022-07-29T12:25:34.044Z,23.6
2022-07-29T12:27:29.656Z,23.6
2022-07-29T12:29:34.634Z,23.6
2022-07-29T12:31:43.474Z,23.6
2022-07-29T12:33:30.064Z,23.5
2022-07-29T12:35:30.773Z,23.5
2022-07-29T12:37:41.065Z,23.6
2022-07-29T12:39:31.797Z,23.7
2022-07-29T12:41:32.366Z,24
2022-07-29T12:43:32.918Z,24.1
2022-07-29T12:45:33.365Z,24.3
2022-07-29T12:47:49.072Z,24.5
2022-07-29T12:49:38.111Z,24.6
2022-07-29T12:51:37.762Z,24.9
2022-07-29T12:53:36.188Z,24.9
2022-07-29T12:55:40.468Z,24.9
2022-07-29T12:57:45.602Z,24.8
2022-07-29T12:59:36.874Z,24.9
2022-07-29T13:01:37.582Z,24.9
2022-07-29T13:03:57.153Z,25.1
2022-07-29T13:05:44.585Z,24.9
2022-07-29T13:07:55.589Z,24.5
2022-07-29T13:09:41.595Z,24.4
2022-07-29T13:11:45.378Z,24.1
2022-07-29T13:13:51.019Z,23.9
2022-07-29T13:15:43.795Z,23.9
2022-07-29T13:17:42.913Z,23.7
2022-07-29T13:19:44.110Z,23.7
2022-07-29T13:21:42.715Z,23.7
2022-07-29T13:23:43.510Z,23.7
2022-07-29T13:25:43.823Z,23.7
2022-07-29T13:27:44.311Z,23.8
2022-07-29T13:29:45.225Z,24.1
2022-07-29T13:31:45.368Z,24.3
2022-07-29T13:33:45.952Z,24.5
2022-07-29T13:35:46.448Z,24.5
2022-07-29T13:37:47.133Z,24.6
2022-07-29T13:39:51.385Z,24.5
2022-07-29T13:41:48.176Z,24.2
2022-07-29T13:43:49.993Z,24
2022-07-29T13:45:49.561Z,23.9
2022-07-29T13:47:49.667Z,23.5
2022-07-29T13:49:50.284Z,23.3
2022-07-29T13:51:50.807Z,23
2022-07-29T13:53:51.303Z,22.9
2022-07-29T13:55:51.741Z,23
2022-07-29T13:57:52.411Z,23.2
2022-07-29T13:59:54.286Z,23.3
2022-07-29T14:01:53.511Z,23.5
2022-07-29T14:03:53.997Z,23.7
2022-07-29T14:05:54.743Z,23.8
2022-07-29T14:07:54.897Z,23.6
2022-07-29T14:09:55.703Z,23.6
2022-07-29T14:11:56.216Z,23.5
2022-07-29T14:13:56.441Z,23.5
2022-07-29T14:15:57.061Z,23.4
2022-07-29T14:17:57.514Z,23.2
2022-07-29T14:19:58.061Z,23.2
2022-07-29T14:21:58.917Z,23.2
2022-07-29T14:23:59.055Z,23.2
2022-07-29T14:25:59.588Z,23.2
2022-07-29T14:28:00.016Z,23.3
2022-07-29T14:30:00.541Z,23.1
2022-07-29T14:32:01.644Z,23.1
2022-07-29T14:34:02.996Z,23.1
2022-07-29T14:36:02.290Z,23.1
2022-07-29T14:38:02.793Z,23
2022-07-29T14:40:03.993Z,23
2022-07-29T14:42:03.943Z,23
2022-07-29T14:44:04.356Z,23
2022-07-29T14:46:08.384Z,23
2022-07-29T14:48:05.683Z,23
2022-07-29T14:50:07.327Z,23
2022-07-29T14:52:06.188Z,23
2022-07-29T14:54:06.700Z,23
2022-07-29T14:56:35.019Z,23
2022-07-29T14:58:11.086Z,22.8
2022-07-29T15:00:09.610Z,22.7
2022-07-29T15:02:09.018Z,22.7
2022-07-29T15:04:09.227Z,22.7
2022-07-29T15:06:09.625Z,22.7
2022-07-29T15:08:10.112Z,22.6
2022-07-29T15:10:10.859Z,22.6
2022-07-29T15:12:11.567Z,22.6
2022-07-29T15:14:11.587Z,22.6
2022-07-29T15:16:12.124Z,22.6
2022-07-29T15:18:12.547Z,22.7
2022-07-29T15:20:13.240Z,22.7
2022-07-29T15:22:13.609Z,22.7
2022-07-29T15:24:14.040Z,22.6
2022-07-29T15:26:14.539Z,22.6
2022-07-29T15:28:15.023Z,22.5
2022-07-29T15:30:33.661Z,22.5
2022-07-29T15:32:16.079Z,22.5
2022-07-29T15:34:16.565Z,22.5
2022-07-29T15:36:42.189Z,22.5
2022-07-29T15:38:17.938Z,22.5
2022-07-29T15:40:18.084Z,22.3
2022-07-29T15:42:18.438Z,22.4
2022-07-29T15:44:19.757Z,22.4
2022-07-29T15:46:20.461Z,22.4
2022-07-29T15:48:19.883Z,22.4
2022-07-29T15:50:20.522Z,22.4
2022-07-29T15:52:25.223Z,22.3
2022-07-29T15:54:21.298Z,22.3
2022-07-29T15:56:21.945Z,22.3
2022-07-29T15:58:22.347Z,22.2
2022-07-29T16:00:22.967Z,22.1
2022-07-29T16:02:23.401Z,22.1
2022-07-29T16:04:23.942Z,21.9
2022-07-29T16:06:24.260Z,21.9
2022-07-29T16:08:24.713Z,21.8
2022-07-29T16:10:25.520Z,21.8
2022-07-29T16:12:25.826Z,21.7
2022-07-29T16:14:28.161Z,21.6
2022-07-29T16:16:26.718Z,21.6
2022-07-29T16:18:30.158Z,21.5
2022-07-29T16:20:27.607Z,21.5
2022-07-29T16:22:28.158Z,21.3
2022-07-29T16:24:28.535Z,21.3
2022-07-29T16:26:29.067Z,21.3
2022-07-29T16:28:29.655Z,21.3
2022-07-29T16:30:29.998Z,21.4
2022-07-29T16:32:30.478Z,21.6
2022-07-29T16:34:30.972Z,21.6
2022-07-29T16:36:31.465Z,21.7
2022-07-29T16:38:31.816Z,21.4
2022-07-29T16:40:32.556Z,21.3
2022-07-29T16:42:46.034Z,21.1
2022-07-29T16:44:33.484Z,21
2022-07-29T16:46:33.768Z,20.9
2022-07-29T16:48:34.589Z,20.9
2022-07-29T16:50:34.605Z,20.7
2022-07-29T16:52:35.125Z,20.7
2022-07-29T16:54:35.527Z,20.7
2022-07-29T16:56:36.066Z,20.6
2022-07-29T16:58:39.280Z,20.6
2022-07-29T17:00:37.377Z,20.6
2022-07-29T17:02:37.591Z,20.6
2022-07-29T17:04:37.830Z,20.6
2022-07-29T17:06:39.773Z,20.4
2022-07-29T17:08:38.737Z,20.4
2022-07-29T17:10:39.431Z,20.4
2022-07-29T17:12:40.606Z,20.4
2022-07-29T17:14:40.027Z,20.4
2022-07-29T17:16:40.605Z,20.4
2022-07-29T17:18:40.904Z,20.5
2022-07-29T17:20:41.716Z,20.3
2022-07-29T17:22:41.866Z,20.3
2022-07-29T17:24:42.553Z,20.3
2022-07-29T17:26:42.682Z,20.3
2022-07-29T17:28:43.227Z,20.3
2022-07-29T17:30:43.529Z,20.2
2022-07-29T17:32:44.358Z,20.2
2022-07-29T17:34:44.464Z,20
2022-07-29T17:36:44.913Z,19.9
2022-07-29T17:38:45.515Z,19.9
2022-07-29T17:40:45.655Z,19.7
2022-07-29T17:42:45.999Z,19.7
2022-07-29T17:44:46.438Z,19.6
2022-07-29T17:46:46.930Z,19.6
2022-07-29T17:48:47.564Z,19.5
2022-07-29T17:50:48.407Z,19.5
2022-07-29T17:52:48.139Z,19.4
2022-07-29T17:54:48.597Z,19.4
2022-07-29T17:56:49.256Z,19.3
2022-07-29T17:58:49.341Z,19.3
2022-07-29T18:00:49.996Z,19.3
2022-07-29T18:02:50.345Z,19.2
2022-07-29T18:04:50.725Z,19.2
2022-07-29T18:06:50.943Z,19.2
2022-07-29T18:08:51.371Z,19.1
2022-07-29T18:10:53.537Z,19
2022-07-29T18:12:52.382Z,18.9
2022-07-29T18:14:52.529Z,18.9
2022-07-29T18:16:52.946Z,18.9
2022-07-29T18:18:53.342Z,18.8
2022-07-29T18:20:54.257Z,18.8
2022-07-29T18:22:54.269Z,18.6
2022-07-29T18:24:54.590Z,18.6
2022-07-29T18:26:55.072Z,18.6
2022-07-29T18:28:55.403Z,18.5
2022-07-29T18:30:55.736Z,18.5
2022-07-29T18:33:19.764Z,18.4
2022-07-29T18:34:56.472Z,18.4
2022-07-29T18:36:57.214Z,18.4
2022-07-29T18:38:57.149Z,18.3
2022-07-29T18:40:57.609Z,18.3
2022-07-29T18:42:58.001Z,18.2
2022-07-29T18:44:58.358Z,18.1
2022-07-29T18:46:59.223Z,18.1
2022-07-29T18:48:59.143Z,18.1
2022-07-29T18:50:59.713Z,18
2022-07-29T18:52:59.962Z,18
2022-07-29T18:55:00.629Z,18
2022-07-29T18:57:01.133Z,17.9
2022-07-29T18:59:00.987Z,17.8
2022-07-29T19:01:01.354Z,17.8
2022-07-29T19:03:02.039Z,17.8
2022-07-29T19:05:02.059Z,17.8
2022-07-29T19:07:02.496Z,17.8
2022-07-29T19:09:03.269Z,17.8
2022-07-29T19:11:03.426Z,17.8
2022-07-29T19:13:03.500Z,17.8
2022-07-29T19:15:04.219Z,17.8
2022-07-29T19:17:04.391Z,17.8
2022-07-29T19:19:04.763Z,17.8
2022-07-29T19:21:04.959Z,17.8
2022-07-29T19:23:05.515Z,17.9
2022-07-29T19:25:06.692Z,17.8
2022-07-29T19:27:06.100Z,17.8
2022-07-29T19:29:06.359Z,17.8
2022-07-29T19:31:06.840Z,17.8
2022-07-29T19:33:07.044Z,17.8
2022-07-29T19:35:07.822Z,17.7
2022-07-29T19:37:07.848Z,17.6
2022-07-29T19:39:08.201Z,17.6
2022-07-29T19:41:08.549Z,17.6
2022-07-29T19:43:51.858Z,17.6
2022-07-29T19:45:11.025Z,17.5
2022-07-29T19:47:09.564Z,17.5
2022-07-29T19:49:10.047Z,17.5
2022-07-29T19:51:10.246Z,17.4
2022-07-29T19:53:10.663Z,17.4
2022-07-29T19:55:11.027Z,17.4
2022-07-29T19:57:11.326Z,17.3
2022-07-29T19:59:11.746Z,17.3
2022-07-29T20:01:12.121Z,17.3
2022-07-29T20:03:12.978Z,17.3
2022-07-29T20:05:13.343Z,17.3
2022-07-29T20:07:13.518Z,17.3
2022-07-29T20:09:17.029Z,17.3
2022-07-29T20:11:14.016Z,17.2
2022-07-29T20:13:14.191Z,17.2
2022-07-29T20:15:16.361Z,17.2
2022-07-29T20:17:15.095Z,17.1
2022-07-29T20:19:15.621Z,17.1
2022-07-29T20:21:15.429Z,17.1
2022-07-29T20:23:16.053Z,17.1
2022-07-29T20:25:16.197Z,17.1
2022-07-29T20:27:16.528Z,17.1
2022-07-29T20:29:16.881Z,17.1
2022-07-29T20:31:17.379Z,17.1
2022-07-29T20:33:17.535Z,17.1
2022-07-29T20:35:19.998Z,17.1
2022-07-29T20:37:18.192Z,17
2022-07-29T20:39:18.568Z,17
2022-07-29T20:41:18.802Z,17
2022-07-29T20:43:19.138Z,17
2022-07-29T20:45:19.641Z,16.9
2022-07-29T20:47:19.781Z,16.9
2022-07-29T20:49:20.240Z,16.9
2022-07-29T20:51:20.682Z,16.8
2022-07-29T20:53:20.891Z,16.8
2022-07-29T20:55:21.185Z,16.8
2022-07-29T20:57:23.612Z,16.9
2022-07-29T20:59:21.801Z,16.9
2022-07-29T21:01:22.210Z,16.9
2022-07-29T21:03:22.616Z,16.9
2022-07-29T21:05:22.838Z,16.9
2022-07-29T21:07:23.114Z,16.9
2022-07-29T21:09:23.505Z,16.9
2022-07-29T21:11:43.651Z,16.9
2022-07-29T21:13:24.144Z,16.9
2022-07-29T21:15:24.637Z,16.9
2022-07-29T21:17:24.741Z,16.9
2022-07-29T21:19:25.103Z,16.8
2022-07-29T21:21:25.416Z,16.8
2022-07-29T21:23:26.536Z,16.8
2022-07-29T21:25:26.320Z,16.8
2022-07-29T21:27:26.861Z,16.8
2022-07-29T21:29:26.793Z,16.8
2022-07-29T21:31:27.110Z,16.8
2022-07-29T21:33:29.085Z,16.8
2022-07-29T21:35:35.758Z,16.8
2022-07-29T21:37:28.034Z,16.7
2022-07-29T21:39:28.493Z,16.7
2022-07-29T21:41:28.707Z,16.7
2022-07-29T21:43:29.383Z,16.7
2022-07-29T21:45:29.388Z,16.7
2022-07-29T21:47:29.624Z,16.7
2022-07-29T21:49:30.081Z,16.7
2022-07-29T21:51:30.325Z,16.7
2022-07-29T21:53:30.794Z,16.7
2022-07-29T21:55:31.659Z,16.7
2022-07-29T21:57:31.537Z,16.6
2022-07-29T21:59:31.659Z,16.6
2022-07-29T22:01:38.985Z,16.6
2022-07-29T22:03:32.277Z,16.6
2022-07-29T22:04:51.475Z,16.6
2022-07-29T22:04:53.833Z,16.6
2022-07-29T22:05:32.608Z,16.5
2022-07-29T22:07:55.943Z,16.6
2022-07-29T22:09:33.091Z,16.6
2022-07-29T22:10:01.748Z,16.9
2022-07-29T22:11:12.893Z,16.6
2022-07-29T22:11:34.749Z,16.6
2022-07-29T22:13:33.692Z,16.6
2022-07-29T22:15:34.218Z,16.6
2022-07-29T22:17:34.330Z,16.5
2022-07-29T22:18:07.871Z,16.8
2022-07-29T22:19:40.138Z,16.5
2022-07-29T22:21:35.029Z,16.5
2022-07-29T22:23:35.284Z,16.5
2022-07-29T22:24:49.815Z,16.9
2022-07-29T22:30:43.782Z,16.4
2022-07-29T22:31:36.538Z,16.4
2022-07-29T22:33:37.171Z,16.4
2022-07-29T22:35:37.184Z,16.4
2022-07-29T22:37:37.595Z,16.3
2022-07-29T22:39:37.905Z,16.3
2022-07-29T22:41:38.096Z,16.3
2022-07-29T22:43:38.577Z,16.3
2022-07-29T22:45:38.698Z,16.2
2022-07-29T22:47:48.170Z,16.2
2022-07-29T22:49:39.424Z,16.2
2022-07-29T22:51:40.835Z,16.2
2022-07-29T22:53:40.004Z,16.2
2022-07-29T22:55:40.250Z,16.2
2022-07-29T22:57:40.679Z,16.1
2022-07-29T22:59:40.857Z,16.1
2022-07-29T23:01:41.217Z,16.1
2022-07-29T23:03:41.945Z,16.1
2022-07-29T23:05:41.809Z,16.1
2022-07-29T23:07:42.480Z,16.1
2022-07-29T23:09:42.484Z,16.1
2022-07-29T23:11:43.009Z,16.1
2022-07-29T23:13:43.104Z,16.1
2022-07-29T23:15:43.378Z,15.9
2022-07-29T23:17:43.693Z,15.9
2022-07-29T23:19:44.031Z,15.9
2022-07-29T23:21:44.603Z,15.9
2022-07-29T23:23:44.619Z,15.9
2022-07-29T23:25:45.036Z,15.9
2022-07-29T23:27:45.234Z,15.8
2022-07-29T23:29:45.525Z,15.8
2022-07-29T23:31:48.284Z,15.8
2022-07-29T23:33:46.096Z,15.8
2022-07-29T23:35:46.406Z,15.8
2022-07-29T23:37:47.080Z,15.7
2022-07-29T23:39:46.954Z,15.7
2022-07-29T23:41:47.259Z,15.7
2022-07-29T23:43:47.970Z,15.7
2022-07-29T23:45:48.519Z,15.7
2022-07-29T23:47:48.175Z,15.6
2022-07-29T23:49:48.570Z,15.6
2022-07-29T23:51:48.879Z,15.5
2022-07-29T23:53:53.830Z,15.5
2022-07-29T23:55:49.390Z,15.5
2022-07-29T23:57:49.679Z,15.4
2022-07-29T23:59:50.101Z,15.3
